Time,TemperatureF,DewpointF,PressureIn,WindDirection,WindDirectionDegrees,WindSpeedMPH,WindSpeedGustMPH,Humidity,HourlyPrecipIn,Conditions,Clouds,dailyrainin,SoftwareType,DateUTC
2013-08-16 00:23:00,55.0,53.0,30.12,WSW,240,0.0,0.0,93,-99.99,,,-99.99,,2013-08-16 04:23:00,
2013-08-16 00:54:00,54.0,52.0,30.11,WSW,240,0.0,0.0,93,-99.99,,,-99.99,,2013-08-16 04:54:00,
2013-08-16 01:12:00,54.0,52.0,30.11,WSW,240,0.0,0.0,93,-99.99,,,-99.99,,2013-08-16 05:12:00,
2013-08-16 01:22:00,53.0,51.0,30.11,WSW,240,0.0,0.0,93,-99.99,,,-99.99,,2013-08-16 05:22:00,
2013-08-16 03:00:00,52.0,50.0,30.10,WSW,240,0.0,0.0,94,-99.99,,,-99.99,,2013-08-16 07:00:00,
2013-08-16 03:11:00,51.0,49.0,30.11,WSW,240,0.0,0.0,94,-99.99,,,-99.99,,2013-08-16 07:11:00,
2013-08-16 03:21:00,51.0,49.0,30.10,WSW,240,0.0,0.0,94,-99.99,,,-99.99,,2013-08-16 07:21:00,
2013-08-16 03:52:00,51.0,49.0,30.10,WSW,240,0.0,0.0,94,-99.99,,,-99.99,,2013-08-16 07:52:00,
2013-08-16 04:11:00,51.0,49.0,30.10,WSW,240,0.0,0.0,94,-99.99,,,-99.99,,2013-08-16 08:11:00,
2013-08-16 04:21:00,50.0,48.0,30.11,WSW,240,0.0,0.0,94,-99.99,,,-99.99,,2013-08-16 08:21:00,
2013-08-16 04:52:00,50.0,49.0,30.11,WSW,240,0.0,0.0,95,-99.99,,,-99.99,,2013-08-16 08:52:00,
2013-08-16 05:11:00,50.0,48.0,30.11,WSW,240,0.0,0.0,94,-99.99,,,-99.99,,2013-08-16 09:11:00,
2013-08-16 05:21:00,50.0,49.0,30.11,WSW,240,0.0,0.0,95,-99.99,,,-99.99,,2013-08-16 09:21:00,
2013-08-16 05:53:00,49.0,48.0,30.12,WSW,240,0.0,0.0,95,-99.99,,,-99.99,,2013-08-16 09:53:00,
2013-08-16 06:23:00,49.0,48.0,30.12,WSW,240,0.0,0.0,95,-99.99,,,-99.99,,2013-08-16 10:23:00,
2013-08-16 06:53:00,49.0,48.0,30.13,WSW,240,0.0,0.0,95,-99.99,,,-99.99,,2013-08-16 10:53:00,
2013-08-16 07:12:00,49.0,48.0,30.13,WSW,240,0.0,0.0,95,-99.99,,,-99.99,,2013-08-16 11:12:00,
2013-08-16 07:22:00,49.0,48.0,30.13,WSW,240,0.0,0.0,96,-99.99,,,-99.99,,2013-08-16 11:22:00,
2013-08-16 07:52:00,51.0,50.0,30.14,WSW,240,0.0,0.0,97,-99.99,,,-99.99,,2013-08-16 11:52:00,
2013-08-16 08:12:00,52.0,51.0,30.14,WSW,240,0.0,0.0,97,-99.99,,,-99.99,,2013-08-16 12:12:00,
2013-08-16 08:21:00,53.0,52.0,30.14,WSW,240,0.0,0.0,98,-99.99,,,-99.99,,2013-08-16 12:21:00,
2013-08-16 08:52:00,57.0,57.0,30.14,WSW,240,0.0,0.0,99,-99.99,,,-99.99,,2013-08-16 12:52:00,
2013-08-16 09:11:00,59.0,59.0,30.14,WSW,240,0.0,0.0,99,-99.99,,,-99.99,,2013-08-16 13:11:00,
2013-08-16 09:22:00,61.0,61.0,30.14,WSW,240,0.0,0.0,99,-99.99,,,-99.99,,2013-08-16 13:22:00,
2013-08-16 09:53:00,64.0,63.0,30.14,WSW,240,0.0,0.0,96,-99.99,,,-99.99,,2013-08-16 13:53:00,
2013-08-16 10:11:00,65.0,62.0,30.14,WSW,238,0.0,0.0,90,-99.99,,,-99.99,,2013-08-16 14:11:00,
2013-08-16 10:22:00,67.0,61.0,30.14,WSW,237,0.0,0.0,81,-99.99,,,-99.99,,2013-08-16 14:22:00,
2013-08-16 10:42:00,69.0,61.0,30.14,WSW,237,0.0,0.0,77,-99.99,,,-99.99,,2013-08-16 14:42:00,
2013-08-16 10:52:00,71.0,63.0,30.14,WSW,237,0.0,2.0,75,-99.99,,,-99.99,,2013-08-16 14:52:00,
2013-08-16 11:12:00,73.0,63.0,30.14,WSW,238,0.0,1.0,71,-99.99,,,-99.99,,2013-08-16 15:12:00,
2013-08-16 11:22:00,73.0,62.0,30.14,SW,236,0.0,1.0,69,-99.99,,,-99.99,,2013-08-16 15:22:00,
2013-08-16 11:56:00,76.0,63.0,30.14,WSW,242,1.0,4.0,64,-99.99,,,-99.99,,2013-08-16 15:56:00,
2013-08-16 12:23:00,75.0,61.0,30.13,SSE,158,1.0,3.0,62,-99.99,,,-99.99,,2013-08-16 16:23:00,
2013-08-16 13:28:00,73.0,59.0,30.13,SE,132,0.0,1.0,62,-99.99,,,-99.99,,2013-08-16 17:28:00,
2013-08-16 14:00:00,77.0,63.0,30.13,WSW,245,0.0,5.0,61,-99.99,,,-99.99,,2013-08-16 18:00:00,
2013-08-16 14:50:00,-999.0,-99.9,30.12,SSW,200,1.0,4.0,56,-99.99,,,-99.99,,2013-08-16 18:50:00,
2013-08-16 15:55:00,77.0,61.0,30.11,SW,226,3.0,5.0,58,-99.99,,,-99.99,,2013-08-16 19:55:00,
2013-08-16 16:11:00,78.0,62.0,30.10,SE,126,0.0,2.0,59,-99.99,,,-99.99,,2013-08-16 20:11:00,
2013-08-16 16:23:00,78.0,61.0,30.10,SSE,155,0.0,4.0,56,-99.99,,,-99.99,,2013-08-16 20:23:00,
2013-08-16 16:52:00,81.0,63.0,30.11,SW,223,2.0,4.0,54,-99.99,,,-99.99,,2013-08-16 20:52:00,
2013-08-16 17:40:00,-999.0,-99.9,30.11,SW,228,0.0,1.0,-999,-99.99,,,-99.99,,2013-08-16 21:40:00,
2013-08-16 19:23:00,76.0,65.0,30.11,SW,229,0.0,0.0,69,-99.99,,,-99.99,,2013-08-16 23:23:00,
2013-08-16 19:52:00,72.0,65.0,30.13,SW,229,0.0,0.0,78,-99.99,,,-99.99,,2013-08-16 23:52:00,
2013-08-16 20:11:00,70.0,64.0,30.13,SW,229,0.0,0.0,80,-99.99,,,-99.99,,2013-08-17 00:11:00,
2013-08-16 20:21:00,69.0,63.0,30.13,SW,229,0.0,0.0,82,-99.99,,,-99.99,,2013-08-17 00:21:00,
2013-08-16 20:42:00,67.0,62.0,30.13,SW,229,0.0,0.0,85,-99.99,,,-99.99,,2013-08-17 00:42:00,
2013-08-16 20:52:00,66.0,62.0,30.14,SW,229,0.0,0.0,86,-99.99,,,-99.99,,2013-08-17 00:52:00,
2013-08-16 21:11:00,65.0,61.0,30.14,SW,229,0.0,0.0,88,-99.99,,,-99.99,,2013-08-17 01:11:00,
2013-08-16 21:21:00,64.0,61.0,30.14,SW,229,0.0,0.0,89,-99.99,,,-99.99,,2013-08-17 01:21:00,
2013-08-16 21:42:00,63.0,60.0,30.15,SW,229,0.0,0.0,90,-99.99,,,-99.99,,2013-08-17 01:42:00,
2013-08-16 21:52:00,62.0,59.0,30.15,SW,229,0.0,0.0,91,-99.99,,,-99.99,,2013-08-17 01:52:00,
2013-08-16 22:21:00,61.0,59.0,30.16,SW,229,0.0,0.0,92,-99.99,,,-99.99,,2013-08-17 02:21:00,
2013-08-16 22:42:00,60.0,58.0,30.16,SW,229,0.0,0.0,92,-99.99,,,-99.99,,2013-08-17 02:42:00,
2013-08-16 22:52:00,60.0,58.0,30.16,SW,229,0.0,0.0,92,-99.99,,,-99.99,,2013-08-17 02:52:00,
2013-08-16 23:11:00,60.0,58.0,30.16,SW,229,0.0,0.0,93,-99.99,,,-99.99,,2013-08-17 03:11:00,
2013-08-16 23:22:00,60.0,58.0,30.16,SW,229,0.0,0.0,93,-99.99,,,-99.99,,2013-08-17 03:22:00,
2013-08-16 23:53:00,59.0,57.0,30.17,SW,229,0.0,0.0,93,-99.99,,,-99.99,,2013-08-17 03:53:00,